sensor_id;sensor_type;location;lat;lon;timestamp;P1;durP1;ratioP1;P2;durP2;ratioP2
20976;SDS011;10647;51.016;3.720;2023-05-09T00:01:09;17.33;;;9.60;;
20976;SDS011;10647;51.016;3.720;2023-05-09T00:03:38;18.33;;;9.70;;
20976;SDS011;10647;51.016;3.720;2023-05-09T00:06:07;16.27;;;9.20;;
20976;SDS011;10647;51.016;3.720;2023-05-09T00:08:38;18.17;;;10.30;;
20976;SDS011;10647;51.016;3.720;2023-05-09T00:11:06;16.93;;;9.93;;
20976;SDS011;10647;51.016;3.720;2023-05-09T00:13:33;18.43;;;9.97;;
20976;SDS011;10647;51.016;3.720;2023-05-09T00:16:02;15.97;;;10.03;;
20976;SDS011;10647;51.016;3.720;2023-05-09T00:18:30;14.23;;;10.10;;
20976;SDS011;10647;51.016;3.720;2023-05-09T00:20:58;17.70;;;9.93;;
20976;SDS011;10647;51.016;3.720;2023-05-09T00:23:27;18.63;;;9.27;;
20976;SDS011;10647;51.016;3.720;2023-05-09T00:25:54;14.33;;;9.95;;
20976;SDS011;10647;51.016;3.720;2023-05-09T00:28:22;19.87;;;10.43;;
20976;SDS011;10647;51.016;3.720;2023-05-09T00:30:50;18.10;;;9.80;;
20976;SDS011;10647;51.016;3.720;2023-05-09T00:33:18;14.50;;;9.60;;
20976;SDS011;10647;51.016;3.720;2023-05-09T00:35:45;14.90;;;9.60;;
20976;SDS011;10647;51.016;3.720;2023-05-09T00:38:13;14.73;;;9.77;;
20976;SDS011;10647;51.016;3.720;2023-05-09T00:40:41;16.47;;;9.80;;
20976;SDS011;10647;51.016;3.720;2023-05-09T00:43:09;19.63;;;10.17;;
20976;SDS011;10647;51.016;3.720;2023-05-09T00:45:36;18.47;;;10.20;;
20976;SDS011;10647;51.016;3.720;2023-05-09T00:48:04;18.70;;;10.03;;
20976;SDS011;10647;51.016;3.720;2023-05-09T00:50:32;13.97;;;9.80;;
20976;SDS011;10647;51.016;3.720;2023-05-09T00:53:01;13.27;;;9.40;;
20976;SDS011;10647;51.016;3.720;2023-05-09T00:55:30;16.50;;;9.50;;
20976;SDS011;10647;51.016;3.720;2023-05-09T00:57:58;16.70;;;10.67;;
20976;SDS011;10647;51.016;3.720;2023-05-09T01:00:26;15.83;;;10.33;;
20976;SDS011;10647;51.016;3.720;2023-05-09T01:02:54;14.20;;;9.70;;
20976;SDS011;10647;51.016;3.720;2023-05-09T01:05:24;16.20;;;10.33;;
20976;SDS011;10647;51.016;3.720;2023-05-09T01:07:59;14.60;;;9.23;;
20976;SDS011;10647;51.016;3.720;2023-05-09T01:10:45;14.93;;;9.97;;
20976;SDS011;10647;51.016;3.720;2023-05-09T01:13:31;15.03;;;9.80;;
20976;SDS011;10647;51.016;3.720;2023-05-09T01:18:54;14.27;;;9.70;;
20976;SDS011;10647;51.016;3.720;2023-05-09T01:21:29;18.07;;;9.60;;
20976;SDS011;10647;51.016;3.720;2023-05-09T01:27:11;16.20;;;9.83;;
20976;SDS011;10647;51.016;3.720;2023-05-09T01:32:13;18.70;;;11.50;;
20976;SDS011;10647;51.016;3.720;2023-05-09T01:34:46;21.47;;;12.43;;
20976;SDS011;10647;51.016;3.720;2023-05-09T01:37:23;38.57;;;17.50;;
20976;SDS011;10647;51.016;3.720;2023-05-09T01:40:06;37.13;;;18.57;;
20976;SDS011;10647;51.016;3.720;2023-05-09T01:42:47;51.67;;;22.83;;
20976;SDS011;10647;51.016;3.720;2023-05-09T01:45:12;52.40;;;23.27;;
20976;SDS011;10647;51.016;3.720;2023-05-09T01:47:41;55.07;;;23.90;;
20976;SDS011;10647;51.016;3.720;2023-05-09T01:50:11;54.60;;;23.47;;
20976;SDS011;10647;51.016;3.720;2023-05-09T01:52:39;31.83;;;16.03;;
20976;SDS011;10647;51.016;3.720;2023-05-09T01:55:10;30.13;;;15.13;;
20976;SDS011;10647;51.016;3.720;2023-05-09T01:57:44;20.47;;;11.13;;
20976;SDS011;10647;51.016;3.720;2023-05-09T02:00:12;19.17;;;10.60;;
20976;SDS011;10647;51.016;3.720;2023-05-09T02:02:43;21.17;;;11.33;;
20976;SDS011;10647;51.016;3.720;2023-05-09T02:05:13;15.17;;;9.30;;
20976;SDS011;10647;51.016;3.720;2023-05-09T02:07:46;14.43;;;9.33;;
20976;SDS011;10647;51.016;3.720;2023-05-09T02:10:14;17.60;;;9.23;;
20976;SDS011;10647;51.016;3.720;2023-05-09T02:12:43;15.57;;;9.73;;
20976;SDS011;10647;51.016;3.720;2023-05-09T02:15:12;15.43;;;8.77;;
20976;SDS011;10647;51.016;3.720;2023-05-09T02:17:40;14.23;;;8.87;;
20976;SDS011;10647;51.016;3.720;2023-05-09T02:20:09;14.70;;;9.30;;
20976;SDS011;10647;51.016;3.720;2023-05-09T02:22:40;16.70;;;8.93;;
20976;SDS011;10647;51.016;3.720;2023-05-09T02:25:10;13.60;;;8.73;;
20976;SDS011;10647;51.016;3.720;2023-05-09T02:27:44;15.23;;;9.43;;
20976;SDS011;10647;51.016;3.720;2023-05-09T02:30:18;14.80;;;8.83;;
20976;SDS011;10647;51.016;3.720;2023-05-09T02:32:44;12.23;;;8.23;;
20976;SDS011;10647;51.016;3.720;2023-05-09T02:35:14;13.30;;;8.30;;
20976;SDS011;10647;51.016;3.720;2023-05-09T02:40:31;12.70;;;9.20;;
20976;SDS011;10647;51.016;3.720;2023-05-09T02:43:01;13.63;;;9.33;;
20976;SDS011;10647;51.016;3.720;2023-05-09T02:45:28;16.10;;;8.80;;
20976;SDS011;10647;51.016;3.720;2023-05-09T02:47:58;15.07;;;9.73;;
20976;SDS011;10647;51.016;3.720;2023-05-09T02:50:26;13.87;;;9.03;;
20976;SDS011;10647;51.016;3.720;2023-05-09T02:52:54;14.93;;;9.10;;
20976;SDS011;10647;51.016;3.720;2023-05-09T02:55:21;14.77;;;9.10;;
20976;SDS011;10647;51.016;3.720;2023-05-09T02:57:49;16.70;;;9.13;;
20976;SDS011;10647;51.016;3.720;2023-05-09T03:00:16;17.43;;;9.90;;
20976;SDS011;10647;51.016;3.720;2023-05-09T03:02:46;13.63;;;9.23;;
20976;SDS011;10647;51.016;3.720;2023-05-09T03:05:14;15.60;;;9.17;;
20976;SDS011;10647;51.016;3.720;2023-05-09T03:07:42;15.80;;;9.30;;
20976;SDS011;10647;51.016;3.720;2023-05-09T03:10:10;14.63;;;10.40;;
20976;SDS011;10647;51.016;3.720;2023-05-09T03:12:38;16.07;;;10.73;;
20976;SDS011;10647;51.016;3.720;2023-05-09T03:15:07;16.07;;;10.90;;
20976;SDS011;10647;51.016;3.720;2023-05-09T03:17:35;20.37;;;11.73;;
20976;SDS011;10647;51.016;3.720;2023-05-09T03:20:03;16.87;;;11.50;;
20976;SDS011;10647;51.016;3.720;2023-05-09T03:22:33;19.30;;;11.80;;
20976;SDS011;10647;51.016;3.720;2023-05-09T03:25:02;20.93;;;12.03;;
20976;SDS011;10647;51.016;3.720;2023-05-09T03:27:31;18.20;;;12.50;;
20976;SDS011;10647;51.016;3.720;2023-05-09T03:29:58;18.00;;;12.13;;
20976;SDS011;10647;51.016;3.720;2023-05-09T03:32:26;20.93;;;13.00;;
20976;SDS011;10647;51.016;3.720;2023-05-09T03:34:53;21.93;;;13.33;;
20976;SDS011;10647;51.016;3.720;2023-05-09T03:37:23;22.10;;;13.50;;
20976;SDS011;10647;51.016;3.720;2023-05-09T03:39:50;25.07;;;13.07;;
20976;SDS011;10647;51.016;3.720;2023-05-09T03:42:17;21.00;;;13.13;;
20976;SDS011;10647;51.016;3.720;2023-05-09T03:44:47;21.73;;;13.23;;
20976;SDS011;10647;51.016;3.720;2023-05-09T03:47:14;20.80;;;13.17;;
20976;SDS011;10647;51.016;3.720;2023-05-09T03:49:42;26.43;;;13.87;;
20976;SDS011;10647;51.016;3.720;2023-05-09T03:52:09;24.13;;;13.27;;
20976;SDS011;10647;51.016;3.720;2023-05-09T03:54:37;21.37;;;13.53;;
20976;SDS011;10647;51.016;3.720;2023-05-09T03:57:04;23.80;;;13.10;;
20976;SDS011;10647;51.016;3.720;2023-05-09T03:59:32;23.93;;;13.57;;
20976;SDS011;10647;51.016;3.720;2023-05-09T04:01:59;20.57;;;13.40;;
20976;SDS011;10647;51.016;3.720;2023-05-09T04:04:27;22.20;;;13.47;;
20976;SDS011;10647;51.016;3.720;2023-05-09T04:06:55;19.77;;;12.57;;
20976;SDS011;10647;51.016;3.720;2023-05-09T04:09:23;23.27;;;13.47;;
20976;SDS011;10647;51.016;3.720;2023-05-09T04:11:53;25.93;;;13.00;;
20976;SDS011;10647;51.016;3.720;2023-05-09T04:14:20;19.87;;;12.53;;
20976;SDS011;10647;51.016;3.720;2023-05-09T04:16:48;20.50;;;13.00;;
20976;SDS011;10647;51.016;3.720;2023-05-09T04:19:16;20.67;;;12.43;;
20976;SDS011;10647;51.016;3.720;2023-05-09T04:21:45;19.13;;;12.13;;
20976;SDS011;10647;51.016;3.720;2023-05-09T04:24:12;19.50;;;12.20;;
20976;SDS011;10647;51.016;3.720;2023-05-09T04:26:40;21.67;;;12.43;;
20976;SDS011;10647;51.016;3.720;2023-05-09T04:29:07;19.70;;;11.47;;
20976;SDS011;10647;51.016;3.720;2023-05-09T04:31:35;20.80;;;12.17;;
20976;SDS011;10647;51.016;3.720;2023-05-09T04:34:03;17.37;;;11.60;;
20976;SDS011;10647;51.016;3.720;2023-05-09T04:36:33;18.03;;;11.97;;
20976;SDS011;10647;51.016;3.720;2023-05-09T04:39:00;18.53;;;12.07;;
20976;SDS011;10647;51.016;3.720;2023-05-09T04:41:29;19.47;;;12.07;;
20976;SDS011;10647;51.016;3.720;2023-05-09T04:43:57;19.80;;;12.03;;
20976;SDS011;10647;51.016;3.720;2023-05-09T04:46:24;23.03;;;11.80;;
20976;SDS011;10647;51.016;3.720;2023-05-09T04:48:52;20.73;;;12.00;;
20976;SDS011;10647;51.016;3.720;2023-05-09T04:51:20;17.80;;;11.83;;
20976;SDS011;10647;51.016;3.720;2023-05-09T04:53:48;20.93;;;12.37;;
20976;SDS011;10647;51.016;3.720;2023-05-09T04:56:16;17.90;;;11.53;;
20976;SDS011;10647;51.016;3.720;2023-05-09T04:58:43;20.90;;;11.87;;
20976;SDS011;10647;51.016;3.720;2023-05-09T05:01:11;22.27;;;12.17;;
20976;SDS011;10647;51.016;3.720;2023-05-09T05:03:39;19.83;;;12.33;;
20976;SDS011;10647;51.016;3.720;2023-05-09T05:06:06;19.57;;;12.87;;
20976;SDS011;10647;51.016;3.720;2023-05-09T05:08:34;20.17;;;12.43;;
20976;SDS011;10647;51.016;3.720;2023-05-09T05:11:01;22.83;;;12.90;;
20976;SDS011;10647;51.016;3.720;2023-05-09T05:13:29;21.53;;;12.97;;
20976;SDS011;10647;51.016;3.720;2023-05-09T05:15:56;21.60;;;12.97;;
20976;SDS011;10647;51.016;3.720;2023-05-09T05:18:24;18.83;;;12.10;;
20976;SDS011;10647;51.016;3.720;2023-05-09T05:20:51;21.90;;;13.80;;
20976;SDS011;10647;51.016;3.720;2023-05-09T05:23:19;19.17;;;12.93;;
20976;SDS011;10647;51.016;3.720;2023-05-09T05:25:46;20.30;;;13.43;;
20976;SDS011;10647;51.016;3.720;2023-05-09T05:28:16;22.20;;;14.27;;
20976;SDS011;10647;51.016;3.720;2023-05-09T05:30:43;28.80;;;15.23;;
20976;SDS011;10647;51.016;3.720;2023-05-09T05:33:11;25.70;;;14.77;;
20976;SDS011;10647;51.016;3.720;2023-05-09T05:35:44;26.20;;;14.50;;
20976;SDS011;10647;51.016;3.720;2023-05-09T05:38:14;21.70;;;14.07;;
20976;SDS011;10647;51.016;3.720;2023-05-09T05:40:41;26.50;;;14.70;;
20976;SDS011;10647;51.016;3.720;2023-05-09T05:43:09;24.80;;;14.40;;
20976;SDS011;10647;51.016;3.720;2023-05-09T05:45:38;24.57;;;14.23;;
20976;SDS011;10647;51.016;3.720;2023-05-09T05:48:12;23.23;;;14.23;;
20976;SDS011;10647;51.016;3.720;2023-05-09T05:50:39;24.53;;;14.03;;
20976;SDS011;10647;51.016;3.720;2023-05-09T05:53:07;23.10;;;14.53;;
20976;SDS011;10647;51.016;3.720;2023-05-09T05:55:34;27.23;;;15.17;;
20976;SDS011;10647;51.016;3.720;2023-05-09T05:58:07;27.27;;;15.83;;
20976;SDS011;10647;51.016;3.720;2023-05-09T06:00:35;22.20;;;14.83;;
20976;SDS011;10647;51.016;3.720;2023-05-09T06:03:03;30.23;;;15.93;;
20976;SDS011;10647;51.016;3.720;2023-05-09T06:05:31;26.50;;;14.63;;
20976;SDS011;10647;51.016;3.720;2023-05-09T06:08:01;26.07;;;14.80;;
20976;SDS011;10647;51.016;3.720;2023-05-09T06:10:28;27.73;;;15.53;;
20976;SDS011;10647;51.016;3.720;2023-05-09T06:12:58;30.80;;;15.80;;
20976;SDS011;10647;51.016;3.720;2023-05-09T06:15:25;29.10;;;14.93;;
20976;SDS011;10647;51.016;3.720;2023-05-09T06:17:53;29.63;;;15.60;;
20976;SDS011;10647;51.016;3.720;2023-05-09T06:20:21;27.57;;;14.63;;
20976;SDS011;10647;51.016;3.720;2023-05-09T06:22:48;25.73;;;15.63;;
20976;SDS011;10647;51.016;3.720;2023-05-09T06:25:16;30.93;;;15.00;;
20976;SDS011;10647;51.016;3.720;2023-05-09T06:27:43;28.77;;;15.57;;
20976;SDS011;10647;51.016;3.720;2023-05-09T06:30:12;32.90;;;16.67;;
20976;SDS011;10647;51.016;3.720;2023-05-09T06:32:39;31.93;;;16.07;;
20976;SDS011;10647;51.016;3.720;2023-05-09T06:35:07;30.27;;;15.53;;
20976;SDS011;10647;51.016;3.720;2023-05-09T06:37:35;31.20;;;15.07;;
20976;SDS011;10647;51.016;3.720;2023-05-09T06:40:02;33.67;;;17.30;;
20976;SDS011;10647;51.016;3.720;2023-05-09T06:42:30;27.90;;;15.18;;
20976;SDS011;10647;51.016;3.720;2023-05-09T06:44:58;24.37;;;14.20;;
20976;SDS011;10647;51.016;3.720;2023-05-09T06:47:25;24.97;;;13.40;;
20976;SDS011;10647;51.016;3.720;2023-05-09T06:49:53;33.07;;;15.57;;
20976;SDS011;10647;51.016;3.720;2023-05-09T06:52:20;31.90;;;15.60;;
20976;SDS011;10647;51.016;3.720;2023-05-09T06:54:48;34.00;;;15.10;;
20976;SDS011;10647;51.016;3.720;2023-05-09T06:57:16;30.60;;;14.93;;
20976;SDS011;10647;51.016;3.720;2023-05-09T06:59:43;28.03;;;14.97;;
20976;SDS011;10647;51.016;3.720;2023-05-09T07:02:11;26.67;;;14.30;;
20976;SDS011;10647;51.016;3.720;2023-05-09T07:04:38;26.30;;;14.70;;
20976;SDS011;10647;51.016;3.720;2023-05-09T07:07:06;28.40;;;14.67;;
20976;SDS011;10647;51.016;3.720;2023-05-09T07:09:34;30.37;;;14.27;;
20976;SDS011;10647;51.016;3.720;2023-05-09T07:12:01;28.03;;;14.20;;
20976;SDS011;10647;51.016;3.720;2023-05-09T07:14:29;23.90;;;12.73;;
20976;SDS011;10647;51.016;3.720;2023-05-09T07:16:56;25.23;;;13.03;;
20976;SDS011;10647;51.016;3.720;2023-05-09T07:19:24;30.60;;;14.37;;
20976;SDS011;10647;51.016;3.720;2023-05-09T07:21:51;29.10;;;14.10;;
20976;SDS011;10647;51.016;3.720;2023-05-09T07:24:19;28.83;;;14.23;;
20976;SDS011;10647;51.016;3.720;2023-05-09T07:26:47;31.23;;;13.80;;
20976;SDS011;10647;51.016;3.720;2023-05-09T07:29:15;25.77;;;14.25;;
20976;SDS011;10647;51.016;3.720;2023-05-09T07:31:45;26.97;;;14.17;;
20976;SDS011;10647;51.016;3.720;2023-05-09T07:34:14;26.45;;;13.93;;
20976;SDS011;10647;51.016;3.720;2023-05-09T07:36:44;31.03;;;13.87;;
20976;SDS011;10647;51.016;3.720;2023-05-09T07:39:11;28.83;;;14.43;;
20976;SDS011;10647;51.016;3.720;2023-05-09T07:41:39;29.07;;;13.67;;
20976;SDS011;10647;51.016;3.720;2023-05-09T07:44:08;28.53;;;13.70;;
20976;SDS011;10647;51.016;3.720;2023-05-09T07:46:35;29.03;;;13.87;;
20976;SDS011;10647;51.016;3.720;2023-05-09T07:49:05;29.03;;;14.33;;
20976;SDS011;10647;51.016;3.720;2023-05-09T07:51:33;27.03;;;14.57;;
20976;SDS011;10647;51.016;3.720;2023-05-09T07:54:00;30.53;;;14.37;;
20976;SDS011;10647;51.016;3.720;2023-05-09T07:56:28;29.67;;;14.50;;
20976;SDS011;10647;51.016;3.720;2023-05-09T07:58:55;36.57;;;15.90;;
20976;SDS011;10647;51.016;3.720;2023-05-09T08:01:23;26.40;;;13.77;;
20976;SDS011;10647;51.016;3.720;2023-05-09T08:03:51;24.70;;;13.00;;
20976;SDS011;10647;51.016;3.720;2023-05-09T08:06:18;22.70;;;11.60;;
20976;SDS011;10647;51.016;3.720;2023-05-09T08:08:46;23.27;;;11.60;;
20976;SDS011;10647;51.016;3.720;2023-05-09T08:11:13;29.43;;;11.90;;
20976;SDS011;10647;51.016;3.720;2023-05-09T08:13:41;23.47;;;11.50;;
20976;SDS011;10647;51.016;3.720;2023-05-09T08:16:08;24.07;;;12.03;;
20976;SDS011;10647;51.016;3.720;2023-05-09T08:18:36;25.90;;;12.43;;
20976;SDS011;10647;51.016;3.720;2023-05-09T08:21:03;24.37;;;12.80;;
20976;SDS011;10647;51.016;3.720;2023-05-09T08:23:31;23.00;;;12.87;;
20976;SDS011;10647;51.016;3.720;2023-05-09T08:25:59;23.93;;;11.77;;
20976;SDS011;10647;51.016;3.720;2023-05-09T08:28:27;26.23;;;11.93;;
20976;SDS011;10647;51.016;3.720;2023-05-09T08:30:55;20.80;;;11.63;;
20976;SDS011;10647;51.016;3.720;2023-05-09T08:33:22;25.37;;;11.40;;
20976;SDS011;10647;51.016;3.720;2023-05-09T08:35:51;21.45;;;11.60;;
20976;SDS011;10647;51.016;3.720;2023-05-09T08:38:19;24.00;;;11.77;;
20976;SDS011;10647;51.016;3.720;2023-05-09T08:40:48;28.40;;;13.20;;
20976;SDS011;10647;51.016;3.720;2023-05-09T08:43:16;26.03;;;11.67;;
20976;SDS011;10647;51.016;3.720;2023-05-09T08:45:51;25.97;;;11.33;;
20976;SDS011;10647;51.016;3.720;2023-05-09T08:48:16;20.37;;;10.27;;
20976;SDS011;10647;51.016;3.720;2023-05-09T08:51:04;24.27;;;11.63;;
20976;SDS011;10647;51.016;3.720;2023-05-09T08:53:33;22.43;;;11.30;;
20976;SDS011;10647;51.016;3.720;2023-05-09T08:56:04;21.03;;;10.63;;
20976;SDS011;10647;51.016;3.720;2023-05-09T08:58:32;21.55;;;10.88;;
20976;SDS011;10647;51.016;3.720;2023-05-09T09:01:06;18.83;;;10.57;;
20976;SDS011;10647;51.016;3.720;2023-05-09T09:03:36;22.27;;;10.97;;
20976;SDS011;10647;51.016;3.720;2023-05-09T09:06:05;17.17;;;10.20;;
20976;SDS011;10647;51.016;3.720;2023-05-09T09:08:33;19.63;;;9.80;;
20976;SDS011;10647;51.016;3.720;2023-05-09T09:11:01;25.10;;;11.10;;
20976;SDS011;10647;51.016;3.720;2023-05-09T09:13:30;19.33;;;10.83;;
20976;SDS011;10647;51.016;3.720;2023-05-09T09:15:58;27.05;;;11.75;;
20976;SDS011;10647;51.016;3.720;2023-05-09T09:18:27;15.97;;;8.97;;
20976;SDS011;10647;51.016;3.720;2023-05-09T09:20:56;17.13;;;8.80;;
20976;SDS011;10647;51.016;3.720;2023-05-09T09:23:31;12.30;;;7.50;;
20976;SDS011;10647;51.016;3.720;2023-05-09T09:26:00;17.33;;;8.10;;
20976;SDS011;10647;51.016;3.720;2023-05-09T09:28:32;13.07;;;6.50;;
20976;SDS011;10647;51.016;3.720;2023-05-09T09:31:02;12.47;;;6.50;;
20976;SDS011;10647;51.016;3.720;2023-05-09T09:33:47;13.30;;;6.60;;
20976;SDS011;10647;51.016;3.720;2023-05-09T09:36:15;18.67;;;7.30;;
20976;SDS011;10647;51.016;3.720;2023-05-09T09:38:44;15.57;;;7.00;;
20976;SDS011;10647;51.016;3.720;2023-05-09T09:41:11;15.73;;;6.93;;
20976;SDS011;10647;51.016;3.720;2023-05-09T09:43:39;16.60;;;6.60;;
20976;SDS011;10647;51.016;3.720;2023-05-09T09:46:10;15.27;;;7.10;;
20976;SDS011;10647;51.016;3.720;2023-05-09T09:48:44;14.47;;;6.67;;
20976;SDS011;10647;51.016;3.720;2023-05-09T09:51:13;12.10;;;6.93;;
20976;SDS011;10647;51.016;3.720;2023-05-09T09:53:43;16.27;;;7.70;;
20976;SDS011;10647;51.016;3.720;2023-05-09T09:56:11;13.20;;;7.17;;
20976;SDS011;10647;51.016;3.720;2023-05-09T09:58:39;15.33;;;7.83;;
20976;SDS011;10647;51.016;3.720;2023-05-09T10:01:10;15.87;;;7.83;;
20976;SDS011;10647;51.016;3.720;2023-05-09T10:03:42;14.43;;;8.30;;
20976;SDS011;10647;51.016;3.720;2023-05-09T10:06:11;16.20;;;8.97;;
20976;SDS011;10647;51.016;3.720;2023-05-09T10:08:41;19.80;;;8.57;;
20976;SDS011;10647;51.016;3.720;2023-05-09T10:11:11;18.00;;;9.73;;
20976;SDS011;10647;51.016;3.720;2023-05-09T10:13:41;17.33;;;9.10;;
20976;SDS011;10647;51.016;3.720;2023-05-09T10:16:09;15.93;;;8.70;;
20976;SDS011;10647;51.016;3.720;2023-05-09T10:18:38;17.80;;;10.13;;
20976;SDS011;10647;51.016;3.720;2023-05-09T10:21:10;15.83;;;9.53;;
20976;SDS011;10647;51.016;3.720;2023-05-09T10:23:41;21.00;;;10.73;;
20976;SDS011;10647;51.016;3.720;2023-05-09T10:26:23;19.00;;;9.20;;
20976;SDS011;10647;51.016;3.720;2023-05-09T10:28:56;19.10;;;9.63;;
20976;SDS011;10647;51.016;3.720;2023-05-09T10:31:25;16.03;;;9.53;;
20976;SDS011;10647;51.016;3.720;2023-05-09T10:33:54;17.47;;;9.07;;
20976;SDS011;10647;51.016;3.720;2023-05-09T10:36:22;20.20;;;10.13;;
20976;SDS011;10647;51.016;3.720;2023-05-09T10:38:53;21.83;;;9.10;;
20976;SDS011;10647;51.016;3.720;2023-05-09T10:41:21;16.83;;;9.03;;
20976;SDS011;10647;51.016;3.720;2023-05-09T10:43:49;13.67;;;7.57;;
20976;SDS011;10647;51.016;3.720;2023-05-09T10:46:16;16.70;;;8.13;;
20976;SDS011;10647;51.016;3.720;2023-05-09T10:48:44;17.23;;;8.63;;
20976;SDS011;10647;51.016;3.720;2023-05-09T10:51:14;17.93;;;8.73;;
20976;SDS011;10647;51.016;3.720;2023-05-09T10:53:46;22.87;;;10.60;;
20976;SDS011;10647;51.016;3.720;2023-05-09T10:56:25;18.33;;;9.67;;
20976;SDS011;10647;51.016;3.720;2023-05-09T10:58:57;19.03;;;9.40;;
20976;SDS011;10647;51.016;3.720;2023-05-09T11:01:30;17.40;;;8.43;;
20976;SDS011;10647;51.016;3.720;2023-05-09T11:04:10;17.57;;;8.60;;
20976;SDS011;10647;51.016;3.720;2023-05-09T11:06:40;16.87;;;7.40;;
20976;SDS011;10647;51.016;3.720;2023-05-09T11:09:29;11.60;;;7.17;;
20976;SDS011;10647;51.016;3.720;2023-05-09T11:12:11;12.43;;;6.40;;
20976;SDS011;10647;51.016;3.720;2023-05-09T11:15:03;9.97;;;5.83;;
20976;SDS011;10647;51.016;3.720;2023-05-09T11:17:28;9.10;;;5.50;;
20976;SDS011;10647;51.016;3.720;2023-05-09T11:19:57;7.83;;;4.67;;
20976;SDS011;10647;51.016;3.720;2023-05-09T11:22:30;8.87;;;5.70;;
20976;SDS011;10647;51.016;3.720;2023-05-09T11:25:06;8.17;;;4.90;;
20976;SDS011;10647;51.016;3.720;2023-05-09T11:27:45;11.47;;;5.03;;
20976;SDS011;10647;51.016;3.720;2023-05-09T11:30:43;7.53;;;4.03;;
20976;SDS011;10647;51.016;3.720;2023-05-09T11:33:43;7.40;;;4.23;;
20976;SDS011;10647;51.016;3.720;2023-05-09T11:36:13;10.67;;;4.90;;
20976;SDS011;10647;51.016;3.720;2023-05-09T11:39:04;9.30;;;4.90;;
20976;SDS011;10647;51.016;3.720;2023-05-09T11:41:41;10.37;;;5.00;;
20976;SDS011;10647;51.016;3.720;2023-05-09T11:44:24;6.63;;;4.00;;
20976;SDS011;10647;51.016;3.720;2023-05-09T11:46:55;15.00;;;5.10;;
20976;SDS011;10647;51.016;3.720;2023-05-09T11:49:23;10.13;;;3.57;;
20976;SDS011;10647;51.016;3.720;2023-05-09T11:51:53;8.50;;;4.23;;
20976;SDS011;10647;51.016;3.720;2023-05-09T11:54:22;7.57;;;4.20;;
20976;SDS011;10647;51.016;3.720;2023-05-09T11:56:50;8.67;;;4.00;;
20976;SDS011;10647;51.016;3.720;2023-05-09T11:59:17;9.33;;;4.13;;
20976;SDS011;10647;51.016;3.720;2023-05-09T12:01:45;7.60;;;4.60;;
20976;SDS011;10647;51.016;3.720;2023-05-09T12:04:13;7.33;;;3.97;;
20976;SDS011;10647;51.016;3.720;2023-05-09T12:06:45;8.97;;;4.30;;
20976;SDS011;10647;51.016;3.720;2023-05-09T12:09:12;7.70;;;3.93;;
20976;SDS011;10647;51.016;3.720;2023-05-09T12:11:47;9.73;;;4.10;;
20976;SDS011;10647;51.016;3.720;2023-05-09T12:14:31;10.70;;;4.30;;
20976;SDS011;10647;51.016;3.720;2023-05-09T12:16:55;8.13;;;4.10;;
20976;SDS011;10647;51.016;3.720;2023-05-09T12:19:24;11.60;;;4.30;;
20976;SDS011;10647;51.016;3.720;2023-05-09T12:24:39;8.27;;;3.93;;
20976;SDS011;10647;51.016;3.720;2023-05-09T12:27:06;7.70;;;3.80;;
20976;SDS011;10647;51.016;3.720;2023-05-09T12:29:34;10.27;;;3.90;;
20976;SDS011;10647;51.016;3.720;2023-05-09T12:32:02;11.00;;;4.00;;
20976;SDS011;10647;51.016;3.720;2023-05-09T12:34:30;8.23;;;4.00;;
20976;SDS011;10647;51.016;3.720;2023-05-09T12:36:58;9.60;;;4.27;;
20976;SDS011;10647;51.016;3.720;2023-05-09T12:39:27;9.40;;;4.10;;
20976;SDS011;10647;51.016;3.720;2023-05-09T12:41:54;10.57;;;4.50;;
20976;SDS011;10647;51.016;3.720;2023-05-09T12:44:23;12.23;;;4.47;;
20976;SDS011;10647;51.016;3.720;2023-05-09T12:46:56;7.93;;;4.10;;
20976;SDS011;10647;51.016;3.720;2023-05-09T12:49:28;6.50;;;3.97;;
20976;SDS011;10647;51.016;3.720;2023-05-09T12:51:57;9.30;;;4.23;;
20976;SDS011;10647;51.016;3.720;2023-05-09T12:54:26;9.47;;;4.53;;
20976;SDS011;10647;51.016;3.720;2023-05-09T12:56:55;7.97;;;4.10;;
20976;SDS011;10647;51.016;3.720;2023-05-09T12:59:25;10.20;;;3.87;;
20976;SDS011;10647;51.016;3.720;2023-05-09T13:01:55;7.60;;;4.07;;
20976;SDS011;10647;51.016;3.720;2023-05-09T13:04:24;6.67;;;3.90;;
20976;SDS011;10647;51.016;3.720;2023-05-09T13:06:53;9.57;;;4.10;;
20976;SDS011;10647;51.016;3.720;2023-05-09T13:09:24;6.67;;;3.73;;
20976;SDS011;10647;51.016;3.720;2023-05-09T13:11:52;7.83;;;3.80;;
20976;SDS011;10647;51.016;3.720;2023-05-09T13:14:21;8.63;;;4.30;;
20976;SDS011;10647;51.016;3.720;2023-05-09T13:16:49;8.53;;;4.10;;
20976;SDS011;10647;51.016;3.720;2023-05-09T13:19:16;6.27;;;3.87;;
20976;SDS011;10647;51.016;3.720;2023-05-09T13:21:44;11.10;;;4.30;;
20976;SDS011;10647;51.016;3.720;2023-05-09T13:24:11;9.90;;;4.57;;
20976;SDS011;10647;51.016;3.720;2023-05-09T13:26:39;9.20;;;4.17;;
20976;SDS011;10647;51.016;3.720;2023-05-09T13:29:06;6.87;;;4.33;;
20976;SDS011;10647;51.016;3.720;2023-05-09T13:31:34;5.17;;;4.03;;
20976;SDS011;10647;51.016;3.720;2023-05-09T13:34:01;8.93;;;4.70;;
20976;SDS011;10647;51.016;3.720;2023-05-09T13:36:29;8.77;;;4.60;;
20976;SDS011;10647;51.016;3.720;2023-05-09T13:38:57;10.03;;;5.27;;
20976;SDS011;10647;51.016;3.720;2023-05-09T13:41:24;9.40;;;4.57;;
20976;SDS011;10647;51.016;3.720;2023-05-09T13:43:53;8.07;;;4.53;;
20976;SDS011;10647;51.016;3.720;2023-05-09T13:46:20;7.00;;;4.30;;
20976;SDS011;10647;51.016;3.720;2023-05-09T13:48:48;8.37;;;4.70;;
20976;SDS011;10647;51.016;3.720;2023-05-09T13:51:15;7.67;;;4.20;;
20976;SDS011;10647;51.016;3.720;2023-05-09T13:53:43;9.53;;;4.50;;
20976;SDS011;10647;51.016;3.720;2023-05-09T13:56:10;10.17;;;5.40;;
20976;SDS011;10647;51.016;3.720;2023-05-09T13:58:38;7.13;;;4.87;;
20976;SDS011;10647;51.016;3.720;2023-05-09T14:01:06;9.23;;;4.90;;
20976;SDS011;10647;51.016;3.720;2023-05-09T14:03:33;10.17;;;5.03;;
20976;SDS011;10647;51.016;3.720;2023-05-09T14:08:48;8.60;;;5.00;;
20976;SDS011;10647;51.016;3.720;2023-05-09T14:11:15;8.73;;;5.00;;
20976;SDS011;10647;51.016;3.720;2023-05-09T14:13:43;8.03;;;4.03;;
20976;SDS011;10647;51.016;3.720;2023-05-09T14:16:10;7.53;;;3.77;;
20976;SDS011;10647;51.016;3.720;2023-05-09T14:18:38;6.37;;;3.70;;
20976;SDS011;10647;51.016;3.720;2023-05-09T14:21:06;7.40;;;4.40;;
20976;SDS011;10647;51.016;3.720;2023-05-09T14:23:33;7.97;;;4.37;;
20976;SDS011;10647;51.016;3.720;2023-05-09T14:26:01;6.97;;;4.10;;
20976;SDS011;10647;51.016;3.720;2023-05-09T14:28:28;6.50;;;4.77;;
20976;SDS011;10647;51.016;3.720;2023-05-09T14:30:56;4.75;;;3.87;;
20976;SDS011;10647;51.016;3.720;2023-05-09T14:33:24;8.47;;;4.80;;
20976;SDS011;10647;51.016;3.720;2023-05-09T14:35:52;8.73;;;4.80;;
20976;SDS011;10647;51.016;3.720;2023-05-09T14:38:20;9.97;;;5.50;;
20976;SDS011;10647;51.016;3.720;2023-05-09T14:40:47;7.80;;;5.80;;
20976;SDS011;10647;51.016;3.720;2023-05-09T14:43:15;12.80;;;5.85;;
20976;SDS011;10647;51.016;3.720;2023-05-09T14:45:42;10.80;;;7.03;;
20976;SDS011;10647;51.016;3.720;2023-05-09T14:48:10;11.63;;;6.47;;
20976;SDS011;10647;51.016;3.720;2023-05-09T14:50:37;12.60;;;7.10;;
20976;SDS011;10647;51.016;3.720;2023-05-09T14:53:05;13.98;;;7.10;;
20976;SDS011;10647;51.016;3.720;2023-05-09T14:55:32;13.77;;;7.27;;
20976;SDS011;10647;51.016;3.720;2023-05-09T14:58:00;12.80;;;6.80;;
20976;SDS011;10647;51.016;3.720;2023-05-09T15:00:27;12.50;;;7.47;;